sensor_id;sensor_type;location;lat;lon;timestamp;P1;durP1;ratioP1;P2;durP2;ratioP2
3577;SDS011;1803;48.494;9.696;2022-09-09T06:50:01;0.03;;;0.03;;
3577;SDS011;1803;48.494;9.696;2022-09-09T07:06:14;32.25;;;28.88;;
3577;SDS011;1803;48.494;9.696;2022-09-09T07:08:42;25.27;;;23.87;;
3577;SDS011;1803;48.494;9.696;2022-09-09T07:11:08;27.67;;;25.67;;
3577;SDS011;1803;48.494;9.696;2022-09-09T07:13:34;25.87;;;24.27;;
3577;SDS011;1803;48.494;9.696;2022-09-09T07:16:07;23.57;;;22.47;;
3577;SDS011;1803;48.494;9.696;2022-09-09T07:18:34;7.90;;;7.80;;
3577;SDS011;1803;48.494;9.696;2022-09-09T07:21:00;8.20;;;8.10;;
3577;SDS011;1803;48.494;9.696;2022-09-09T07:25:52;0.98;;;0.98;;
3577;SDS011;1803;48.494;9.696;2022-09-09T07:33:17;1.33;;;0.90;;
3577;SDS011;1803;48.494;9.696;2022-09-09T07:35:45;1.30;;;1.00;;
3577;SDS011;1803;48.494;9.696;2022-09-09T07:38:10;0.83;;;0.73;;
3577;SDS011;1803;48.494;9.696;2022-09-09T07:40:36;1.33;;;0.60;;
3577;SDS011;1803;48.494;9.696;2022-09-09T07:43:02;1.40;;;0.97;;
3577;SDS011;1803;48.494;9.696;2022-09-09T07:45:27;1.07;;;0.80;;
3577;SDS011;1803;48.494;9.696;2022-09-09T07:47:53;2.07;;;0.80;;
3577;SDS011;1803;48.494;9.696;2022-09-09T07:50:21;0.80;;;0.60;;
3577;SDS011;1803;48.494;9.696;2022-09-09T07:52:48;1.33;;;0.77;;
3577;SDS011;1803;48.494;9.696;2022-09-09T07:55:14;2.30;;;1.10;;
3577;SDS011;1803;48.494;9.696;2022-09-09T07:57:40;0.97;;;0.80;;
3577;SDS011;1803;48.494;9.696;2022-09-09T08:00:05;1.97;;;0.80;;
3577;SDS011;1803;48.494;9.696;2022-09-09T08:02:31;1.27;;;1.07;;
3577;SDS011;1803;48.494;9.696;2022-09-09T08:04:57;3.37;;;1.33;;
3577;SDS011;1803;48.494;9.696;2022-09-09T08:07:22;3.13;;;1.93;;
3577;SDS011;1803;48.494;9.696;2022-09-09T08:09:48;1.97;;;1.80;;
3577;SDS011;1803;48.494;9.696;2022-09-09T08:12:14;1.27;;;0.97;;
3577;SDS011;1803;48.494;9.696;2022-09-09T08:14:40;3.47;;;1.00;;
3577;SDS011;1803;48.494;9.696;2022-09-09T08:17:05;4.30;;;1.57;;
3577;SDS011;1803;48.494;9.696;2022-09-09T08:19:31;1.33;;;0.80;;
3577;SDS011;1803;48.494;9.696;2022-09-09T08:22:00;13.40;;;1.20;;
3577;SDS011;1803;48.494;9.696;2022-09-09T08:24:27;1.00;;;0.90;;
3577;SDS011;1803;48.494;9.696;2022-09-09T08:26:53;1.17;;;1.07;;
3577;SDS011;1803;48.494;9.696;2022-09-09T08:29:19;1.23;;;0.63;;
3577;SDS011;1803;48.494;9.696;2022-09-09T08:34:15;0.67;;;0.60;;
3577;SDS011;1803;48.494;9.696;2022-09-09T08:36:45;0.90;;;0.73;;
3577;SDS011;1803;48.494;9.696;2022-09-09T08:39:12;1.00;;;0.90;;
3577;SDS011;1803;48.494;9.696;2022-09-09T08:49:35;1.73;;;1.20;;
3577;SDS011;1803;48.494;9.696;2022-09-09T08:52:16;2.40;;;0.80;;
3577;SDS011;1803;48.494;9.696;2022-09-09T08:54:46;1.23;;;0.80;;
3577;SDS011;1803;48.494;9.696;2022-09-09T08:57:18;3.07;;;0.80;;
3577;SDS011;1803;48.494;9.696;2022-09-09T08:59:47;1.23;;;0.70;;
3577;SDS011;1803;48.494;9.696;2022-09-09T09:02:17;0.80;;;0.70;;
3577;SDS011;1803;48.494;9.696;2022-09-09T09:04:56;1.40;;;0.70;;
3577;SDS011;1803;48.494;9.696;2022-09-09T09:13:19;3.40;;;0.90;;
3577;SDS011;1803;48.494;9.696;2022-09-09T09:15:53;1.43;;;0.80;;
3577;SDS011;1803;48.494;9.696;2022-09-09T09:18:27;1.00;;;0.80;;
3577;SDS011;1803;48.494;9.696;2022-09-09T09:23:45;1.03;;;0.80;;
3577;SDS011;1803;48.494;9.696;2022-09-09T09:26:25;3.90;;;0.80;;
3577;SDS011;1803;48.494;9.696;2022-09-09T09:28:58;8.30;;;0.77;;
3577;SDS011;1803;48.494;9.696;2022-09-09T09:31:25;0.70;;;0.67;;
3577;SDS011;1803;48.494;9.696;2022-09-09T09:33:55;1.80;;;0.87;;
3577;SDS011;1803;48.494;9.696;2022-09-09T09:36:23;0.90;;;0.60;;
3577;SDS011;1803;48.494;9.696;2022-09-09T09:38:58;0.90;;;0.70;;
3577;SDS011;1803;48.494;9.696;2022-09-09T09:44:02;2.13;;;0.80;;
3577;SDS011;1803;48.494;9.696;2022-09-09T09:46:29;1.10;;;0.90;;
3577;SDS011;1803;48.494;9.696;2022-09-09T09:49:02;1.80;;;0.63;;
3577;SDS011;1803;48.494;9.696;2022-09-09T09:51:30;1.37;;;0.80;;
3577;SDS011;1803;48.494;9.696;2022-09-09T09:57:13;0.87;;;0.77;;
3577;SDS011;1803;48.494;9.696;2022-09-09T09:59:41;9.63;;;0.80;;
3577;SDS011;1803;48.494;9.696;2022-09-09T10:02:14;2.97;;;1.00;;
3577;SDS011;1803;48.494;9.696;2022-09-09T10:05:00;1.10;;;0.50;;
3577;SDS011;1803;48.494;9.696;2022-09-09T10:07:30;3.83;;;0.80;;
3577;SDS011;1803;48.494;9.696;2022-09-09T10:09:57;1.90;;;1.20;;
3577;SDS011;1803;48.494;9.696;2022-09-09T10:12:33;1.10;;;0.70;;
3577;SDS011;1803;48.494;9.696;2022-09-09T10:15:15;0.87;;;0.70;;
3577;SDS011;1803;48.494;9.696;2022-09-09T10:20:43;1.00;;;0.77;;
3577;SDS011;1803;48.494;9.696;2022-09-09T10:26:10;1.40;;;0.60;;
3577;SDS011;1803;48.494;9.696;2022-09-09T10:28:47;1.20;;;0.70;;
3577;SDS011;1803;48.494;9.696;2022-09-09T10:40:27;3.10;;;0.63;;
3577;SDS011;1803;48.494;9.696;2022-09-09T10:46:14;1.50;;;0.53;;
3577;SDS011;1803;48.494;9.696;2022-09-09T10:54:24;3.27;;;0.73;;
3577;SDS011;1803;48.494;9.696;2022-09-09T10:56:54;1.27;;;0.73;;
3577;SDS011;1803;48.494;9.696;2022-09-09T10:59:24;1.53;;;0.60;;
3577;SDS011;1803;48.494;9.696;2022-09-09T11:02:02;5.63;;;0.70;;
3577;SDS011;1803;48.494;9.696;2022-09-09T11:07:06;4.03;;;0.70;;
3577;SDS011;1803;48.494;9.696;2022-09-09T11:09:37;1.43;;;1.00;;
3577;SDS011;1803;48.494;9.696;2022-09-09T11:12:09;1.40;;;1.40;;
3577;SDS011;1803;48.494;9.696;2022-09-09T11:14:43;1.03;;;0.70;;
3577;SDS011;1803;48.494;9.696;2022-09-09T11:17:23;0.50;;;0.40;;
3577;SDS011;1803;48.494;9.696;2022-09-09T11:19:55;1.10;;;0.60;;
3577;SDS011;1803;48.494;9.696;2022-09-09T11:24:57;0.67;;;0.50;;
3577;SDS011;1803;48.494;9.696;2022-09-09T11:27:37;4.23;;;0.60;;
3577;SDS011;1803;48.494;9.696;2022-09-09T11:30:22;0.50;;;0.40;;
3577;SDS011;1803;48.494;9.696;2022-09-09T11:38:47;0.60;;;0.50;;
3577;SDS011;1803;48.494;9.696;2022-09-09T11:41:16;0.50;;;0.40;;
3577;SDS011;1803;48.494;9.696;2022-09-09T11:43:49;0.70;;;0.40;;
3577;SDS011;1803;48.494;9.696;2022-09-09T11:46:20;3.80;;;2.93;;
3577;SDS011;1803;48.494;9.696;2022-09-09T11:48:59;2.20;;;0.50;;
3577;SDS011;1803;48.494;9.696;2022-09-09T11:51:27;4.93;;;0.77;;
3577;SDS011;1803;48.494;9.696;2022-09-09T11:56:54;0.97;;;0.40;;
3577;SDS011;1803;48.494;9.696;2022-09-09T11:59:20;6.90;;;0.50;;
3577;SDS011;1803;48.494;9.696;2022-09-09T12:05:16;1.07;;;0.83;;
3577;SDS011;1803;48.494;9.696;2022-09-09T12:07:30;0.60;;;0.50;;
3577;SDS011;1803;48.494;9.696;2022-09-09T12:10:02;0.60;;;0.57;;
3577;SDS011;1803;48.494;9.696;2022-09-09T12:12:33;2.53;;;0.60;;
3577;SDS011;1803;48.494;9.696;2022-09-09T12:17:36;7.10;;;4.13;;
3577;SDS011;1803;48.494;9.696;2022-09-09T12:20:18;28.57;;;10.67;;
3577;SDS011;1803;48.494;9.696;2022-09-09T12:22:51;91.93;;;41.50;;
3577;SDS011;1803;48.494;9.696;2022-09-09T12:28:06;30.07;;;26.90;;
3577;SDS011;1803;48.494;9.696;2022-09-09T12:30:43;25.23;;;23.43;;
3577;SDS011;1803;48.494;9.696;2022-09-09T12:33:12;24.77;;;23.17;;
3577;SDS011;1803;48.494;9.696;2022-09-09T12:35:41;27.70;;;25.47;;
3577;SDS011;1803;48.494;9.696;2022-09-09T12:38:14;20.60;;;19.33;;
3577;SDS011;1803;48.494;9.696;2022-09-09T12:40:53;21.07;;;19.50;;
3577;SDS011;1803;48.494;9.696;2022-09-09T12:43:21;0.75;;;0.75;;
3577;SDS011;1803;48.494;9.696;2022-09-09T12:45:48;17.77;;;16.80;;
3577;SDS011;1803;48.494;9.696;2022-09-09T16:58:37;17.73;;;17.42;;
3577;SDS011;1803;48.494;9.696;2022-09-09T17:01:03;14.47;;;14.27;;
3577;SDS011;1803;48.494;9.696;2022-09-09T17:03:30;10.40;;;10.23;;
3577;SDS011;1803;48.494;9.696;2022-09-09T17:05:56;13.93;;;13.73;;
3577;SDS011;1803;48.494;9.696;2022-09-09T17:08:23;6.33;;;6.23;;
3577;SDS011;1803;48.494;9.696;2022-09-09T17:10:49;0.10;;;0.10;;
3577;SDS011;1803;48.494;9.696;2022-09-09T17:13:15;0.37;;;0.37;;
3577;SDS011;1803;48.494;9.696;2022-09-09T17:15:43;0.50;;;0.50;;
3577;SDS011;1803;48.494;9.696;2022-09-09T17:18:12;0.20;;;0.20;;
3577;SDS011;1803;48.494;9.696;2022-09-09T17:20:38;0.20;;;0.20;;
3577;SDS011;1803;48.494;9.696;2022-09-09T17:23:08;0.20;;;0.20;;
3577;SDS011;1803;48.494;9.696;2022-09-09T17:25:34;0.20;;;0.20;;
3577;SDS011;1803;48.494;9.696;2022-09-09T17:28:00;0.43;;;0.43;;
3577;SDS011;1803;48.494;9.696;2022-09-09T17:30:28;0.00;;;0.00;;
3577;SDS011;1803;48.494;9.696;2022-09-09T17:32:56;0.20;;;0.20;;
3577;SDS011;1803;48.494;9.696;2022-09-09T17:35:22;0.20;;;0.20;;
3577;SDS011;1803;48.494;9.696;2022-09-09T17:37:47;0.20;;;0.20;;
3577;SDS011;1803;48.494;9.696;2022-09-09T17:40:13;0.00;;;0.00;;
3577;SDS011;1803;48.494;9.696;2022-09-09T17:42:38;0.20;;;0.20;;
3577;SDS011;1803;48.494;9.696;2022-09-09T17:45:05;0.10;;;0.10;;
3577;SDS011;1803;48.494;9.696;2022-09-09T17:47:31;0.00;;;0.00;;
3577;SDS011;1803;48.494;9.696;2022-09-09T17:49:57;0.00;;;0.00;;
3577;SDS011;1803;48.494;9.696;2022-09-09T17:52:22;0.10;;;0.10;;
3577;SDS011;1803;48.494;9.696;2022-09-09T17:54:48;0.20;;;0.20;;
3577;SDS011;1803;48.494;9.696;2022-09-09T17:57:14;0.10;;;0.10;;
3577;SDS011;1803;48.494;9.696;2022-09-09T17:59:42;0.10;;;0.10;;
3577;SDS011;1803;48.494;9.696;2022-09-09T18:02:08;0.10;;;0.10;;
3577;SDS011;1803;48.494;9.696;2022-09-09T18:04:35;0.10;;;0.10;;
3577;SDS011;1803;48.494;9.696;2022-09-09T18:07:01;0.17;;;0.17;;
3577;SDS011;1803;48.494;9.696;2022-09-09T18:09:27;0.20;;;0.20;;
3577;SDS011;1803;48.494;9.696;2022-09-09T18:11:53;0.10;;;0.10;;
3577;SDS011;1803;48.494;9.696;2022-09-09T18:14:21;0.45;;;0.45;;
3577;SDS011;1803;48.494;9.696;2022-09-09T18:16:49;0.13;;;0.13;;
3577;SDS011;1803;48.494;9.696;2022-09-09T18:19:19;0.07;;;0.07;;
3577;SDS011;1803;48.494;9.696;2022-09-09T18:21:47;0.00;;;0.00;;
3577;SDS011;1803;48.494;9.696;2022-09-09T18:24:17;0.28;;;0.28;;
3577;SDS011;1803;48.494;9.696;2022-09-09T18:26:44;0.40;;;0.40;;
3577;SDS011;1803;48.494;9.696;2022-09-09T18:29:13;0.20;;;0.20;;
3577;SDS011;1803;48.494;9.696;2022-09-09T18:31:40;0.13;;;0.13;;
3577;SDS011;1803;48.494;9.696;2022-09-09T18:34:07;0.15;;;0.15;;
3577;SDS011;1803;48.494;9.696;2022-09-09T18:36:35;0.00;;;0.00;;
3577;SDS011;1803;48.494;9.696;2022-09-09T18:39:03;0.00;;;0.00;;
3577;SDS011;1803;48.494;9.696;2022-09-09T18:41:32;0.08;;;0.08;;
3577;SDS011;1803;48.494;9.696;2022-09-09T18:44:01;0.10;;;0.10;;
3577;SDS011;1803;48.494;9.696;2022-09-09T18:46:32;0.00;;;0.00;;
3577;SDS011;1803;48.494;9.696;2022-09-09T18:48:58;0.08;;;0.08;;
3577;SDS011;1803;48.494;9.696;2022-09-09T18:51:25;0.17;;;0.17;;
3577;SDS011;1803;48.494;9.696;2022-09-09T18:53:59;0.20;;;0.20;;
3577;SDS011;1803;48.494;9.696;2022-09-09T18:58:54;0.40;;;0.40;;
3577;SDS011;1803;48.494;9.696;2022-09-09T22:14:29;0.80;;;0.80;;
3577;SDS011;1803;48.494;9.696;2022-09-09T23:28:25;0.10;;;0.10;;
3577;SDS011;1803;48.494;9.696;2022-09-09T23:33:17;0.20;;;0.20;;
3577;SDS011;1803;48.494;9.696;2022-09-09T23:47:50;0.20;;;0.20;;
3577;SDS011;1803;48.494;9.696;2022-09-09T23:57:36;0.10;;;0.10;;
